createdAt,value
2022-12-18T00:01:04.861Z,14.75
2022-12-18T00:03:31.573Z,14.35
2022-12-18T00:05:58.276Z,14.74
2022-12-18T00:08:24.922Z,15.03
2022-12-18T00:10:51.575Z,14.32
2022-12-18T00:13:19.406Z,14.96
2022-12-18T00:15:46.082Z,16.92
2022-12-18T00:18:16.079Z,17.06
2022-12-18T00:20:45.657Z,16.76
2022-12-18T00:23:12.281Z,16.59
2022-12-18T00:25:38.980Z,16.29
2022-12-18T00:28:05.620Z,15.33
2022-12-18T00:30:32.331Z,15.01
2022-12-18T00:32:58.969Z,13.53
2022-12-18T00:35:25.609Z,13.18
2022-12-18T00:37:52.243Z,12.96
2022-12-18T00:40:18.889Z,12.81
2022-12-18T00:42:45.525Z,11.93
2022-12-18T00:45:13.097Z,12.66
2022-12-18T00:47:40.190Z,12.10
2022-12-18T00:50:07.355Z,12.29
2022-12-18T00:52:34.007Z,12.87
2022-12-18T00:55:05.840Z,13.29
2022-12-18T00:57:32.958Z,13.75
2022-12-18T00:59:59.702Z,14.24
2022-12-18T01:02:26.465Z,14.14
2022-12-18T01:04:53.204Z,14.94
2022-12-18T01:07:19.834Z,15.56
2022-12-18T01:09:46.483Z,15.94
2022-12-18T01:12:13.105Z,15.65
2022-12-18T01:14:39.717Z,16.82
2022-12-18T01:17:06.353Z,17.44
2022-12-18T01:19:33.084Z,17.60
2022-12-18T01:21:59.761Z,18.13
2022-12-18T01:24:26.408Z,17.84
2022-12-18T01:26:53.045Z,18.78
2022-12-18T01:29:19.689Z,19.11
2022-12-18T01:31:46.400Z,19.17
2022-12-18T01:34:13.093Z,19.55
2022-12-18T01:36:39.726Z,19.65
2022-12-18T01:39:08.460Z,19.64
2022-12-18T01:41:35.597Z,19.91
2022-12-18T01:44:02.230Z,19.21
2022-12-18T01:46:28.849Z,19.38
2022-12-18T01:48:57.806Z,19.47
2022-12-18T01:51:24.942Z,20.89
2022-12-18T01:53:51.568Z,20.75
2022-12-18T01:56:19.645Z,20.78
2022-12-18T01:58:53.767Z,20.90
2022-12-18T02:01:22.156Z,21.45
2022-12-18T02:03:48.843Z,21.47
2022-12-18T02:06:15.320Z,21.19
2022-12-18T02:09:09.529Z,21.55
2022-12-18T02:11:47.328Z,22.51
2022-12-18T02:14:29.203Z,22.30
2022-12-18T02:17:11.920Z,22.37
2022-12-18T02:20:02.851Z,22.55
2022-12-18T02:23:02.183Z,22.44
2022-12-18T02:25:28.907Z,22.17
2022-12-18T02:27:55.540Z,22.09
2022-12-18T02:30:22.282Z,21.84
2022-12-18T02:32:51.733Z,21.42
2022-12-18T02:35:21.867Z,21.88
2022-12-18T02:37:48.506Z,22.29
2022-12-18T02:40:15.404Z,22.77
2022-12-18T02:42:42.153Z,22.15
2022-12-18T02:45:09.001Z,21.99
2022-12-18T02:47:38.404Z,22.27
2022-12-18T02:50:17.982Z,22.54
2022-12-18T02:53:10.838Z,22.24
2022-12-18T02:56:07.184Z,22.54
2022-12-18T02:58:35.608Z,22.27
2022-12-18T03:01:22.561Z,22.07
2022-12-18T03:03:55.553Z,22.63
2022-12-18T03:06:34.921Z,22.29
2022-12-18T03:09:03.714Z,23.08
2022-12-18T03:11:31.993Z,23.14
2022-12-18T03:13:58.721Z,23.39
2022-12-18T03:16:29.674Z,22.51
2022-12-18T03:19:01.910Z,23.24
2022-12-18T03:21:48.524Z,23.35
2022-12-18T03:24:15.165Z,23.52
2022-12-18T03:26:43.669Z,22.76
2022-12-18T03:29:13.462Z,23.13
2022-12-18T03:31:41.273Z,23.48
2022-12-18T03:34:14.587Z,23.93
2022-12-18T03:36:41.237Z,24.12
2022-12-18T03:39:07.854Z,24.36
2022-12-18T03:41:48.531Z,23.96
2022-12-18T03:44:16.133Z,23.57
2022-12-18T03:47:15.007Z,23.21
2022-12-18T03:50:00.300Z,23.68
2022-12-18T03:52:29.089Z,23.94
2022-12-18T03:54:56.284Z,24.48
2022-12-18T03:57:24.667Z,23.72
2022-12-18T03:59:53.302Z,23.27
2022-12-18T04:02:20.123Z,22.23
2022-12-18T04:04:46.874Z,22.37
2022-12-18T04:07:13.498Z,21.87
2022-12-18T04:09:40.201Z,21.73
2022-12-18T04:12:09.168Z,21.95
2022-12-18T04:14:35.824Z,21.09
2022-12-18T04:17:03.257Z,19.32
2022-12-18T04:19:29.903Z,17.29
2022-12-18T04:21:56.537Z,15.79
2022-12-18T04:24:23.198Z,15.50
2022-12-18T04:26:49.815Z,15.13
2022-12-18T04:29:16.447Z,15.31
2022-12-18T04:31:43.077Z,14.97
2022-12-18T04:34:09.699Z,15.82
2022-12-18T04:36:36.341Z,14.09
2022-12-18T04:39:03.001Z,13.41
2022-12-18T04:41:29.623Z,12.99
2022-12-18T04:43:56.315Z,12.33
2022-12-18T04:46:23.028Z,12.03
2022-12-18T04:48:49.693Z,12.29
2022-12-18T04:51:16.350Z,12.67
2022-12-18T04:53:43.204Z,12.64
2022-12-18T04:56:12.514Z,12.08
2022-12-18T04:58:39.400Z,12.02
2022-12-18T05:01:06.157Z,12.55
2022-12-18T05:03:32.849Z,12.19
2022-12-18T05:05:59.563Z,13.87
2022-12-18T05:08:26.364Z,13.25
2022-12-18T05:11:03.059Z,13.23
2022-12-18T05:13:29.758Z,12.81
2022-12-18T05:15:56.447Z,12.86
2022-12-18T05:18:23.842Z,14.20
2022-12-18T05:20:53.380Z,14.07
2022-12-18T05:23:20.086Z,13.29
2022-12-18T05:25:55.348Z,13.84
2022-12-18T05:28:21.976Z,15.00
2022-12-18T05:30:50.175Z,15.45
2022-12-18T05:33:16.928Z,15.33
2022-12-18T05:35:43.562Z,15.47
2022-12-18T05:38:10.190Z,16.40
2022-12-18T05:40:36.818Z,16.11
2022-12-18T05:43:06.148Z,14.96
2022-12-18T05:45:32.791Z,15.22
2022-12-18T05:47:59.454Z,14.92
2022-12-18T05:50:26.152Z,14.68
2022-12-18T05:52:52.786Z,13.21
2022-12-18T05:55:19.421Z,11.97
2022-12-18T05:57:46.056Z,12.85
2022-12-18T06:00:13.671Z,12.16
2022-12-18T06:02:40.440Z,12.17
2022-12-18T06:05:07.360Z,12.25
2022-12-18T06:07:33.976Z,12.14
2022-12-18T06:10:00.628Z,11.53
2022-12-18T06:12:27.266Z,10.87
2022-12-18T06:14:53.906Z,9.45
2022-12-18T06:17:20.608Z,9.21
2022-12-18T06:19:47.234Z,8.80
2022-12-18T06:22:13.876Z,8.48
2022-12-18T06:24:40.486Z,8.53
2022-12-18T06:27:07.109Z,8.56
2022-12-18T06:29:33.725Z,7.72
2022-12-18T06:32:00.398Z,8.47
2022-12-18T06:34:27.053Z,8.19
2022-12-18T06:36:53.693Z,7.86
2022-12-18T06:39:20.302Z,9.25
2022-12-18T06:41:46.952Z,14.32
2022-12-18T06:44:13.669Z,10.83
2022-12-18T06:46:40.334Z,8.88
2022-12-18T06:49:08.381Z,8.10
2022-12-18T06:51:34.994Z,7.60
2022-12-18T06:54:01.680Z,7.32
2022-12-18T06:56:28.371Z,7.68
2022-12-18T06:58:55.036Z,12.72
2022-12-18T07:01:21.797Z,11.17
2022-12-18T07:03:48.558Z,10.60
2022-12-18T07:06:18.853Z,10.15
2022-12-18T07:08:46.022Z,9.03
2022-12-18T07:11:12.773Z,7.79
2022-12-18T07:13:39.864Z,6.36
2022-12-18T07:16:17.052Z,5.90
2022-12-18T07:18:47.663Z,6.10
2022-12-18T07:21:15.806Z,6.03
2022-12-18T07:23:42.836Z,5.56
2022-12-18T07:26:11.309Z,6.05
2022-12-18T07:28:38.568Z,5.28
2022-12-18T07:31:06.145Z,5.39
2022-12-18T07:33:34.213Z,6.13
2022-12-18T07:36:01.577Z,5.51
2022-12-18T07:38:28.206Z,5.59
2022-12-18T07:40:55.147Z,5.66
2022-12-18T07:43:21.769Z,5.22
2022-12-18T07:45:50.356Z,5.80
2022-12-18T07:48:17.025Z,5.62
2022-12-18T07:50:43.686Z,5.75
2022-12-18T07:53:10.317Z,5.94
2022-12-18T07:56:05.318Z,5.30
2022-12-18T07:58:23.572Z,5.28
2022-12-18T08:00:50.217Z,5.27
2022-12-18T08:03:17.045Z,6.02
2022-12-18T08:05:43.700Z,7.97
2022-12-18T08:08:10.780Z,9.22
2022-12-18T08:10:38.459Z,9.00
2022-12-18T08:13:05.375Z,8.60
2022-12-18T08:15:32.200Z,8.06
2022-12-18T08:17:58.881Z,6.79
2022-12-18T08:20:25.522Z,6.13
2022-12-18T08:22:52.143Z,6.04
2022-12-18T08:25:18.759Z,6.18
2022-12-18T08:27:45.372Z,7.45
2022-12-18T08:30:12.306Z,8.41
2022-12-18T08:32:38.950Z,6.30
2022-12-18T08:35:06.345Z,5.52
2022-12-18T08:37:33.037Z,8.16
2022-12-18T08:39:59.719Z,17.95
2022-12-18T08:42:26.359Z,11.72
2022-12-18T08:44:53.024Z,13.34
2022-12-18T08:47:19.705Z,15.19
2022-12-18T08:49:46.345Z,43.89
2022-12-18T08:52:13.097Z,29.92
2022-12-18T08:54:39.724Z,30.50
2022-12-18T08:57:06.351Z,14.74
2022-12-18T08:59:32.992Z,9.28
2022-12-18T09:01:59.682Z,5.97
2022-12-18T09:04:26.389Z,4.77
2022-12-18T09:06:53.026Z,3.71
2022-12-18T09:09:19.648Z,3.46
2022-12-18T09:11:46.427Z,3.20
2022-12-18T09:14:13.061Z,3.17
2022-12-18T09:16:39.732Z,3.21
2022-12-18T09:19:06.572Z,3.33
2022-12-18T09:21:36.760Z,2.74
2022-12-18T09:24:04.164Z,2.58
2022-12-18T09:26:32.233Z,2.77
2022-12-18T09:28:58.881Z,2.82
2022-12-18T09:31:25.634Z,2.22
2022-12-18T09:33:52.425Z,2.16
2022-12-18T09:36:19.148Z,2.21
2022-12-18T09:38:45.790Z,2.29
2022-12-18T09:41:45.984Z,2.38
2022-12-18T09:44:31.812Z,3.08
2022-12-18T09:46:58.389Z,3.36
2022-12-18T09:49:26.604Z,3.64
2022-12-18T09:52:18.861Z,3.37
2022-12-18T09:55:13.602Z,3.03
2022-12-18T09:57:43.504Z,3.36
2022-12-18T10:00:10.433Z,3.59
2022-12-18T10:02:37.209Z,3.81
2022-12-18T10:05:10.752Z,3.71
2022-12-18T10:08:16.919Z,3.74
2022-12-18T10:10:51.314Z,3.73
2022-12-18T10:13:43.023Z,4.06
2022-12-18T10:16:20.574Z,4.40
2022-12-18T10:19:41.535Z,4.82
2022-12-18T10:22:10.541Z,4.70
2022-12-18T10:24:40.285Z,4.67
2022-12-18T10:27:15.254Z,4.99
2022-12-18T10:29:43.627Z,5.16
2022-12-18T10:32:15.310Z,4.76
2022-12-18T10:34:41.948Z,5.18
2022-12-18T10:37:12.840Z,5.48
2022-12-18T10:39:39.444Z,6.06
2022-12-18T10:42:17.438Z,6.23
2022-12-18T10:44:44.069Z,6.09
2022-12-18T10:47:13.777Z,6.93
2022-12-18T10:49:43.415Z,6.22
2022-12-18T10:52:21.331Z,6.97
2022-12-18T10:54:53.599Z,7.15
2022-12-18T10:57:25.842Z,7.28
2022-12-18T10:59:54.055Z,7.09
2022-12-18T11:02:35.548Z,7.14
2022-12-18T11:05:02.330Z,7.20
2022-12-18T11:07:48.375Z,7.60
2022-12-18T11:10:17.980Z,7.26
2022-12-18T11:12:44.638Z,6.02
2022-12-18T11:15:30.615Z,6.17
2022-12-18T11:17:57.229Z,6.24
2022-12-18T11:20:33.433Z,6.31
2022-12-18T11:23:01.637Z,6.98
2022-12-18T11:25:32.935Z,6.81
2022-12-18T11:28:05.616Z,7.15
2022-12-18T11:30:33.949Z,7.17
2022-12-18T11:33:08.107Z,6.91
2022-12-18T11:35:52.997Z,8.65
2022-12-18T11:38:29.902Z,7.53
2022-12-18T11:41:01.622Z,9.11
2022-12-18T11:43:30.742Z,12.58
2022-12-18T11:46:02.629Z,14.62
2022-12-18T11:48:39.318Z,15.70
2022-12-18T11:51:06.932Z,15.80
2022-12-18T11:53:33.681Z,17.29
2022-12-18T11:56:42.985Z,16.44
2022-12-18T11:59:25.168Z,17.70
2022-12-18T12:02:15.687Z,17.10
2022-12-18T12:05:00.537Z,18.16
2022-12-18T12:07:48.310Z,18.15
2022-12-18T12:10:27.101Z,18.06
2022-12-18T12:12:53.608Z,18.56
2022-12-18T12:15:20.140Z,18.21
2022-12-18T12:17:52.628Z,18.15
2022-12-18T12:20:49.574Z,17.19
2022-12-18T12:23:26.162Z,17.32
2022-12-18T12:26:05.069Z,17.05
2022-12-18T12:29:02.187Z,17.59
2022-12-18T12:31:48.180Z,18.09
2022-12-18T12:34:31.521Z,18.77
2022-12-18T12:37:22.331Z,18.27
2022-12-18T12:39:48.987Z,17.99
2022-12-18T12:42:36.665Z,18.36
2022-12-18T12:45:06.098Z,18.17
2022-12-18T12:47:42.742Z,17.96
2022-12-18T12:50:14.828Z,17.96
2022-12-18T12:52:46.913Z,17.89
2022-12-18T12:55:21.396Z,18.01
2022-12-18T12:57:59.973Z,18.24
2022-12-18T13:00:26.888Z,18.65
2022-12-18T13:03:20.887Z,18.80
2022-12-18T13:05:51.977Z,18.65
2022-12-18T13:08:35.322Z,17.81
2022-12-18T13:11:02.564Z,17.68
2022-12-18T13:13:30.306Z,18.03
2022-12-18T13:16:07.518Z,17.33
2022-12-18T13:18:34.141Z,17.92
2022-12-18T13:21:03.222Z,18.21
2022-12-18T13:23:35.249Z,18.11
2022-12-18T13:26:08.280Z,17.91
2022-12-18T13:28:34.777Z,18.26
2022-12-18T13:31:02.164Z,18.43
2022-12-18T13:33:34.860Z,18.02
2022-12-18T13:36:04.036Z,18.15
2022-12-18T13:38:34.282Z,17.69
2022-12-18T13:41:21.181Z,18.08
2022-12-18T13:43:53.581Z,17.55
2022-12-18T13:46:29.538Z,18.24
2022-12-18T13:49:07.133Z,17.78
2022-12-18T13:51:34.400Z,17.31
2022-12-18T13:54:18.300Z,17.77
2022-12-18T13:56:45.932Z,17.61
2022-12-18T13:59:26.839Z,17.49
2022-12-18T14:01:58.406Z,17.83
2022-12-18T14:04:29.631Z,18.04
2022-12-18T14:07:04.092Z,17.39
2022-12-18T14:09:32.536Z,18.41
2022-12-18T14:11:59.372Z,17.82
2022-12-18T14:14:32.389Z,17.62
2022-12-18T14:17:00.682Z,17.52
2022-12-18T14:19:27.610Z,17.43
2022-12-18T14:21:54.245Z,17.40
2022-12-18T14:24:22.180Z,17.80
2022-12-18T14:26:50.001Z,17.72
2022-12-18T14:29:20.206Z,17.39
2022-12-18T14:32:08.436Z,17.51
2022-12-18T14:34:38.535Z,17.82
2022-12-18T14:37:05.403Z,17.69
2022-12-18T14:39:32.059Z,16.84
2022-12-18T14:41:58.715Z,17.75
2022-12-18T14:44:25.450Z,17.95
2022-12-18T14:46:52.114Z,17.54
2022-12-18T14:49:31.080Z,17.57
2022-12-18T14:52:05.355Z,17.22
2022-12-18T14:54:32.121Z,18.38
2022-12-18T14:57:04.562Z,18.29
2022-12-18T14:59:31.357Z,17.61
2022-12-18T15:02:17.678Z,17.29
2022-12-18T15:04:44.680Z,18.20
2022-12-18T15:07:16.726Z,18.46
2022-12-18T15:09:45.132Z,18.85
2022-12-18T15:12:27.368Z,17.75
2022-12-18T15:14:54.155Z,18.40
2022-12-18T15:17:23.120Z,19.10
2022-12-18T15:19:53.234Z,18.21
2022-12-18T15:22:24.059Z,18.60
2022-12-18T15:24:50.767Z,18.53
2022-12-18T15:27:26.106Z,18.93
2022-12-18T15:30:23.265Z,18.61
2022-12-18T15:32:50.145Z,18.12
2022-12-18T15:35:19.046Z,18.77
2022-12-18T15:37:45.704Z,19.83
2022-12-18T15:40:17.442Z,19.23
2022-12-18T15:42:44.202Z,20.16
2022-12-18T15:45:14.140Z,19.07
2022-12-18T15:47:41.416Z,19.17
2022-12-18T15:50:08.517Z,19.26
2022-12-18T15:52:47.461Z,19.30
2022-12-18T15:55:14.710Z,19.15
2022-12-18T15:57:41.349Z,18.51
2022-12-18T16:00:12.833Z,18.95
2022-12-18T16:02:39.667Z,22.00
2022-12-18T16:05:14.702Z,22.52
2022-12-18T16:07:41.381Z,27.81
2022-12-18T16:10:08.283Z,41.26
2022-12-18T16:12:35.437Z,68.92
2022-12-18T16:15:02.847Z,76.18
2022-12-18T16:17:29.486Z,30.22
2022-12-18T16:19:56.350Z,29.51
2022-12-18T16:22:24.941Z,35.85
2022-12-18T16:24:52.062Z,45.25
2022-12-18T16:27:18.827Z,53.06
2022-12-18T16:29:45.456Z,127.26
2022-12-18T16:32:16.937Z,112.35
2022-12-18T16:34:43.599Z,70.97
2022-12-18T16:37:11.346Z,56.20
2022-12-18T16:39:38.867Z,31.91
2022-12-18T16:42:16.525Z,31.55
2022-12-18T16:44:43.489Z,26.90
2022-12-18T16:47:10.176Z,27.03
2022-12-18T16:49:38.441Z,34.43
2022-12-18T16:52:05.796Z,36.79
2022-12-18T16:54:32.429Z,37.83
2022-12-18T16:56:59.129Z,38.32
2022-12-18T16:59:25.801Z,33.65
2022-12-18T17:01:52.633Z,34.43
2022-12-18T17:04:19.346Z,30.37
2022-12-18T17:06:46.022Z,30.51
2022-12-18T17:09:13.229Z,36.44
2022-12-18T17:11:39.887Z,38.37
2022-12-18T17:14:11.093Z,32.82
2022-12-18T17:16:37.793Z,33.10
2022-12-18T17:19:09.668Z,31.96
2022-12-18T17:21:40.348Z,31.54
2022-12-18T17:24:07.602Z,35.26
2022-12-18T17:26:34.218Z,38.58
2022-12-18T17:29:00.853Z,35.92
2022-12-18T17:31:28.651Z,36.65
2022-12-18T17:33:55.341Z,33.48
2022-12-18T17:36:22.107Z,30.14
2022-12-18T17:38:52.220Z,28.88
2022-12-18T17:41:18.869Z,27.30
2022-12-18T17:43:50.397Z,27.30
2022-12-18T17:46:17.084Z,27.83
2022-12-18T17:48:43.746Z,29.48
2022-12-18T17:51:10.748Z,29.98
2022-12-18T17:53:38.719Z,31.39
2022-12-18T17:56:05.897Z,29.04
2022-12-18T17:58:36.210Z,27.64
2022-12-18T18:01:04.303Z,28.56
2022-12-18T18:03:31.959Z,28.31
2022-12-18T18:05:59.395Z,31.18
2022-12-18T18:08:26.563Z,32.67
2022-12-18T18:10:53.330Z,31.65
2022-12-18T18:13:24.489Z,29.34
2022-12-18T18:15:57.679Z,29.66
2022-12-18T18:18:24.517Z,32.17
2022-12-18T18:20:51.541Z,31.35
2022-12-18T18:23:24.674Z,30.01
2022-12-18T18:25:51.405Z,29.48
2022-12-18T18:28:18.705Z,29.18
2022-12-18T18:30:45.437Z,27.84
2022-12-18T18:33:12.284Z,27.72
2022-12-18T18:35:58.347Z,27.41
2022-12-18T18:38:25.057Z,27.23
2022-12-18T18:41:01.357Z,28.45
2022-12-18T18:43:28.010Z,29.07
2022-12-18T18:45:58.035Z,28.77
2022-12-18T18:48:25.307Z,29.27
2022-12-18T18:51:22.700Z,33.08
2022-12-18T18:53:50.958Z,34.06
2022-12-18T18:56:56.444Z,35.76
2022-12-18T18:59:06.674Z,45.89
2022-12-18T19:01:33.423Z,131.21
2022-12-18T19:04:00.597Z,79.57
2022-12-18T19:06:27.999Z,60.75
2022-12-18T19:08:55.114Z,47.19
2022-12-18T19:11:22.430Z,45.47
2022-12-18T19:13:49.069Z,44.18
2022-12-18T19:16:15.818Z,40.39
2022-12-18T19:18:42.858Z,33.85
2022-12-18T19:21:09.850Z,33.68
2022-12-18T19:23:36.607Z,34.40
2022-12-18T19:26:27.443Z,35.59
2022-12-18T19:28:50.777Z,33.35
2022-12-18T19:31:22.818Z,31.22
2022-12-18T19:33:51.533Z,30.35
2022-12-18T19:36:22.773Z,46.31
2022-12-18T19:38:49.999Z,44.70
2022-12-18T19:41:16.916Z,30.75
2022-12-18T19:43:44.965Z,31.70
2022-12-18T19:46:15.771Z,35.52
2022-12-18T19:48:43.105Z,29.87
2022-12-18T19:51:39.367Z,29.24
2022-12-18T19:54:06.018Z,31.70
2022-12-18T19:56:33.646Z,31.46
2022-12-18T19:59:00.604Z,31.28
2022-12-18T20:01:27.452Z,30.30
2022-12-18T20:03:56.120Z,32.94
2022-12-18T20:06:34.878Z,31.07
2022-12-18T20:09:05.642Z,30.46
2022-12-18T20:11:32.937Z,30.56
2022-12-18T20:14:02.505Z,31.00
2022-12-18T20:16:29.519Z,31.66
2022-12-18T20:18:57.354Z,31.38
2022-12-18T20:21:26.898Z,30.35
2022-12-18T20:23:53.594Z,29.03
2022-12-18T20:26:20.354Z,27.95
2022-12-18T20:28:47.042Z,31.47
2022-12-18T20:31:14.235Z,32.15
2022-12-18T20:33:41.659Z,29.11
2022-12-18T20:36:12.384Z,28.46
2022-12-18T20:38:39.572Z,30.32
2022-12-18T20:41:08.482Z,29.50
2022-12-18T20:43:35.323Z,30.95
2022-12-18T20:46:07.136Z,32.85
2022-12-18T20:48:33.820Z,34.71
2022-12-18T20:51:02.053Z,32.02
2022-12-18T20:53:30.649Z,28.86
2022-12-18T20:55:57.292Z,28.21
2022-12-18T20:58:24.195Z,28.13
2022-12-18T21:00:51.014Z,27.69
2022-12-18T21:03:17.785Z,27.19
2022-12-18T21:05:44.638Z,27.83
2022-12-18T21:08:11.273Z,33.20
2022-12-18T21:10:39.931Z,32.05
2022-12-18T21:13:07.279Z,30.35
2022-12-18T21:15:35.407Z,28.78
2022-12-18T21:18:02.044Z,29.22
2022-12-18T21:20:28.909Z,31.32
2022-12-18T21:22:59.155Z,30.52
2022-12-18T21:25:38.861Z,29.67
2022-12-18T21:28:05.473Z,29.68
2022-12-18T21:30:32.769Z,28.96
2022-12-18T21:32:59.486Z,28.80
2022-12-18T21:35:26.382Z,28.54
2022-12-18T21:37:55.884Z,28.78
2022-12-18T21:40:22.567Z,29.05
2022-12-18T21:42:49.489Z,27.83
2022-12-18T21:45:16.150Z,26.50
2022-12-18T21:47:42.777Z,26.15
2022-12-18T21:50:09.457Z,26.83
2022-12-18T21:52:36.142Z,25.59
2022-12-18T21:55:08.977Z,27.24
2022-12-18T21:57:39.846Z,27.51
2022-12-18T22:00:07.543Z,27.85
2022-12-18T22:02:34.435Z,27.51
2022-12-18T22:05:01.236Z,27.01
2022-12-18T22:07:27.928Z,28.75
2022-12-18T22:09:54.880Z,30.63
2022-12-18T22:12:21.562Z,29.58
2022-12-18T22:14:48.216Z,25.62
2022-12-18T22:17:14.946Z,23.87
2022-12-18T22:19:43.067Z,23.58
2022-12-18T22:22:10.286Z,23.09
2022-12-18T22:24:37.039Z,23.97
2022-12-18T22:27:03.695Z,24.02
2022-12-18T22:29:30.853Z,23.51
2022-12-18T22:31:59.352Z,23.23
2022-12-18T22:34:26.015Z,23.08
2022-12-18T22:36:52.756Z,23.81
2022-12-18T22:39:21.090Z,24.80
2022-12-18T22:41:48.060Z,24.25
2022-12-18T22:44:15.017Z,23.90
2022-12-18T22:46:46.026Z,23.97
2022-12-18T22:49:16.935Z,23.18
2022-12-18T22:51:43.821Z,24.61
2022-12-18T22:54:10.511Z,24.13
2022-12-18T22:56:37.186Z,24.94
2022-12-18T22:59:03.900Z,25.24
2022-12-18T23:01:30.907Z,24.73
2022-12-18T23:03:58.075Z,25.10
2022-12-18T23:06:26.037Z,24.61
2022-12-18T23:08:56.022Z,24.10
2022-12-18T23:11:22.854Z,24.22
2022-12-18T23:13:49.890Z,23.93
2022-12-18T23:16:17.488Z,23.28
2022-12-18T23:18:44.233Z,23.17
2022-12-18T23:21:15.287Z,22.67
2022-12-18T23:23:43.712Z,22.99
2022-12-18T23:26:19.237Z,23.30
2022-12-18T23:28:45.964Z,23.09
2022-12-18T23:31:16.722Z,22.29
2022-12-18T23:33:44.529Z,22.60
2022-12-18T23:36:11.670Z,22.57
2022-12-18T23:38:38.335Z,23.05
2022-12-18T23:41:13.139Z,23.29
2022-12-18T23:43:40.033Z,22.95
2022-12-18T23:46:11.188Z,22.23
2022-12-18T23:48:38.407Z,23.25
2022-12-18T23:51:06.908Z,23.31
2022-12-18T23:53:33.534Z,22.66
2022-12-18T23:56:00.148Z,22.84
2022-12-18T23:58:27.114Z,23.42
